sensor_id;sensor_type;location;lat;lon;timestamp;pressure;altitude;pressure_sealevel;temperature;humidity
6778;BME280;3426;52.244;10.534;2022-07-29T00:02:03;101039.31;;;19.37;43.93
6778;BME280;3426;52.244;10.534;2022-07-29T00:04:29;101042.28;;;19.76;42.95
6778;BME280;3426;52.244;10.534;2022-07-29T00:06:56;101044.28;;;19.83;43.38
6778;BME280;3426;52.244;10.534;2022-07-29T00:09:22;101048.88;;;19.93;42.70
6778;BME280;3426;52.244;10.534;2022-07-29T00:11:49;101038.38;;;20.20;41.76
6778;BME280;3426;52.244;10.534;2022-07-29T00:14:15;101040.50;;;19.86;42.48
6778;BME280;3426;52.244;10.534;2022-07-29T00:16:42;101029.94;;;19.52;42.85
6778;BME280;3426;52.244;10.534;2022-07-29T00:19:09;101033.25;;;19.03;43.80
6778;BME280;3426;52.244;10.534;2022-07-29T00:21:36;101028.50;;;19.27;44.02
6778;BME280;3426;52.244;10.534;2022-07-29T00:24:02;101028.66;;;19.47;43.54
6778;BME280;3426;52.244;10.534;2022-07-29T00:26:29;101022.44;;;18.39;45.72
6778;BME280;3426;52.244;10.534;2022-07-29T00:29:02;101019.94;;;18.69;45.24
6778;BME280;3426;52.244;10.534;2022-07-29T00:31:49;101009.66;;;18.09;46.81
6778;BME280;3426;52.244;10.534;2022-07-29T00:34:16;101008.94;;;18.18;46.40
6778;BME280;3426;52.244;10.534;2022-07-29T00:37:01;101014.44;;;17.94;46.82
6778;BME280;3426;52.244;10.534;2022-07-29T00:39:28;101004.31;;;18.09;46.21
6778;BME280;3426;52.244;10.534;2022-07-29T00:41:54;101002.97;;;18.03;46.29
6778;BME280;3426;52.244;10.534;2022-07-29T00:44:21;100999.03;;;18.30;45.90
6778;BME280;3426;52.244;10.534;2022-07-29T00:46:47;100998.09;;;18.08;46.17
6778;BME280;3426;52.244;10.534;2022-07-29T00:49:14;101003.22;;;18.11;46.48
6778;BME280;3426;52.244;10.534;2022-07-29T00:51:40;101002.72;;;18.06;46.40
6778;BME280;3426;52.244;10.534;2022-07-29T00:54:07;100997.19;;;17.63;47.09
6778;BME280;3426;52.244;10.534;2022-07-29T00:56:34;100992.22;;;18.25;46.35
6778;BME280;3426;52.244;10.534;2022-07-29T00:59:00;100989.50;;;18.48;45.32
6778;BME280;3426;52.244;10.534;2022-07-29T01:01:27;100988.97;;;18.54;45.04
6778;BME280;3426;52.244;10.534;2022-07-29T01:03:54;100983.59;;;18.11;46.16
6778;BME280;3426;52.244;10.534;2022-07-29T01:06:21;100987.63;;;17.94;46.80
6778;BME280;3426;52.244;10.534;2022-07-29T01:08:49;100980.50;;;18.38;45.96
6778;BME280;3426;52.244;10.534;2022-07-29T01:11:16;100983.88;;;18.51;45.00
6778;BME280;3426;52.244;10.534;2022-07-29T01:13:44;100985.59;;;18.52;45.02
6778;BME280;3426;52.244;10.534;2022-07-29T01:16:21;100977.81;;;18.38;45.23
6778;BME280;3426;52.244;10.534;2022-07-29T01:18:54;100977.66;;;19.15;43.94
6778;BME280;3426;52.244;10.534;2022-07-29T01:21:51;100977.06;;;19.53;43.05
6778;BME280;3426;52.244;10.534;2022-07-29T01:25:00;100981.16;;;20.08;42.36
6778;BME280;3426;52.244;10.534;2022-07-29T01:29:59;100975.84;;;19.88;42.38
6778;BME280;3426;52.244;10.534;2022-07-29T01:32:33;100977.72;;;19.66;42.73
6778;BME280;3426;52.244;10.534;2022-07-29T01:35:08;100966.75;;;18.74;44.55
6778;BME280;3426;52.244;10.534;2022-07-29T01:37:43;100972.22;;;18.41;45.50
6778;BME280;3426;52.244;10.534;2022-07-29T01:40:19;100969.97;;;18.57;44.63
6778;BME280;3426;52.244;10.534;2022-07-29T01:42:50;100963.72;;;19.00;43.79
6778;BME280;3426;52.244;10.534;2022-07-29T01:45:41;100951.53;;;18.20;45.47
6778;BME280;3426;52.244;10.534;2022-07-29T01:50:48;100951.78;;;18.93;44.20
6778;BME280;3426;52.244;10.534;2022-07-29T01:53:28;100946.91;;;19.70;42.37
6778;BME280;3426;52.244;10.534;2022-07-29T01:56:03;100941.81;;;19.67;42.59
6778;BME280;3426;52.244;10.534;2022-07-29T01:58:32;100935.47;;;20.18;41.70
6778;BME280;3426;52.244;10.534;2022-07-29T02:00:59;100938.94;;;19.59;42.90
6778;BME280;3426;52.244;10.534;2022-07-29T02:03:28;100941.38;;;19.41;42.92
6778;BME280;3426;52.244;10.534;2022-07-29T02:05:56;100940.69;;;18.97;43.83
6778;BME280;3426;52.244;10.534;2022-07-29T02:08:24;100938.63;;;19.83;42.38
6778;BME280;3426;52.244;10.534;2022-07-29T02:10:52;100936.91;;;20.22;41.17
6778;BME280;3426;52.244;10.534;2022-07-29T02:13:20;100935.91;;;20.23;41.81
6778;BME280;3426;52.244;10.534;2022-07-29T02:15:49;100939.84;;;20.19;41.35
6778;BME280;3426;52.244;10.534;2022-07-29T02:18:19;100937.56;;;20.05;41.51
6778;BME280;3426;52.244;10.534;2022-07-29T02:20:48;100936.63;;;20.25;40.87
6778;BME280;3426;52.244;10.534;2022-07-29T02:23:22;100936.22;;;18.87;43.73
6778;BME280;3426;52.244;10.534;2022-07-29T02:25:51;100926.28;;;19.50;42.70
6778;BME280;3426;52.244;10.534;2022-07-29T02:28:20;100927.16;;;18.88;43.87
6778;BME280;3426;52.244;10.534;2022-07-29T02:30:49;100915.66;;;18.76;43.89
6778;BME280;3426;52.244;10.534;2022-07-29T02:33:18;100916.13;;;17.94;46.17
6778;BME280;3426;52.244;10.534;2022-07-29T02:35:46;100910.91;;;17.82;46.60
6778;BME280;3426;52.244;10.534;2022-07-29T02:38:15;100915.63;;;18.00;46.27
6778;BME280;3426;52.244;10.534;2022-07-29T02:41:03;100908.78;;;18.51;45.11
6778;BME280;3426;52.244;10.534;2022-07-29T02:43:32;100902.38;;;17.88;46.79
6778;BME280;3426;52.244;10.534;2022-07-29T02:46:00;100904.81;;;17.91;46.93
6778;BME280;3426;52.244;10.534;2022-07-29T02:48:34;100912.59;;;17.94;46.86
6778;BME280;3426;52.244;10.534;2022-07-29T02:51:17;100918.44;;;17.65;47.15
6778;BME280;3426;52.244;10.534;2022-07-29T02:54:07;100906.41;;;17.93;46.59
6778;BME280;3426;52.244;10.534;2022-07-29T02:56:35;100906.13;;;17.96;46.86
6778;BME280;3426;52.244;10.534;2022-07-29T02:59:09;100912.47;;;17.62;47.27
6778;BME280;3426;52.244;10.534;2022-07-29T03:01:38;100906.13;;;17.52;47.63
6778;BME280;3426;52.244;10.534;2022-07-29T03:04:07;100906.44;;;18.14;46.08
6778;BME280;3426;52.244;10.534;2022-07-29T03:06:36;100919.47;;;18.19;46.00
6778;BME280;3426;52.244;10.534;2022-07-29T03:09:06;100916.72;;;17.98;46.68
6778;BME280;3426;52.244;10.534;2022-07-29T03:11:39;100917.41;;;19.28;43.44
6778;BME280;3426;52.244;10.534;2022-07-29T03:14:16;100919.19;;;19.70;42.85
6778;BME280;3426;52.244;10.534;2022-07-29T03:16:44;100920.69;;;18.58;44.90
6778;BME280;3426;52.244;10.534;2022-07-29T03:19:12;100931.06;;;18.19;46.06
6778;BME280;3426;52.244;10.534;2022-07-29T03:21:39;100920.28;;;18.42;45.53
6778;BME280;3426;52.244;10.534;2022-07-29T03:24:06;100916.78;;;18.30;45.78
6778;BME280;3426;52.244;10.534;2022-07-29T03:26:36;100919.91;;;19.20;43.76
6778;BME280;3426;52.244;10.534;2022-07-29T03:29:03;100915.59;;;18.12;46.06
6778;BME280;3426;52.244;10.534;2022-07-29T03:31:30;100918.56;;;17.97;46.68
6778;BME280;3426;52.244;10.534;2022-07-29T03:33:58;100923.06;;;17.86;47.08
6778;BME280;3426;52.244;10.534;2022-07-29T03:36:25;100907.50;;;18.34;45.99
6778;BME280;3426;52.244;10.534;2022-07-29T03:38:51;100909.19;;;17.36;47.89
6778;BME280;3426;52.244;10.534;2022-07-29T03:41:19;100912.09;;;17.55;48.42
6778;BME280;3426;52.244;10.534;2022-07-29T03:43:49;100900.28;;;17.69;47.92
6778;BME280;3426;52.244;10.534;2022-07-29T03:46:20;100900.91;;;17.84;47.31
6778;BME280;3426;52.244;10.534;2022-07-29T03:48:50;100897.25;;;18.60;45.54
6778;BME280;3426;52.244;10.534;2022-07-29T03:51:19;100902.34;;;17.09;49.47
6778;BME280;3426;52.244;10.534;2022-07-29T03:54:00;100907.47;;;17.57;48.44
6778;BME280;3426;52.244;10.534;2022-07-29T03:56:38;100898.09;;;17.63;48.10
6778;BME280;3426;52.244;10.534;2022-07-29T03:59:06;100892.75;;;18.40;46.74
6778;BME280;3426;52.244;10.534;2022-07-29T04:01:34;100905.72;;;17.11;49.61
6778;BME280;3426;52.244;10.534;2022-07-29T04:04:02;100900.16;;;18.04;47.76
6778;BME280;3426;52.244;10.534;2022-07-29T04:06:37;100901.41;;;17.89;47.63
6778;BME280;3426;52.244;10.534;2022-07-29T04:09:04;100902.09;;;17.12;49.67
6778;BME280;3426;52.244;10.534;2022-07-29T04:11:36;100898.00;;;17.64;48.87
6778;BME280;3426;52.244;10.534;2022-07-29T04:14:22;100894.97;;;16.89;50.39
6778;BME280;3426;52.244;10.534;2022-07-29T04:16:49;100898.34;;;17.48;49.06
6778;BME280;3426;52.244;10.534;2022-07-29T04:19:19;100898.91;;;17.07;50.08
6778;BME280;3426;52.244;10.534;2022-07-29T04:21:46;100899.91;;;17.29;49.67
6778;BME280;3426;52.244;10.534;2022-07-29T04:24:12;100898.00;;;17.64;48.83
6778;BME280;3426;52.244;10.534;2022-07-29T04:26:39;100912.59;;;17.60;49.11
6778;BME280;3426;52.244;10.534;2022-07-29T04:29:06;100906.75;;;17.55;48.75
6778;BME280;3426;52.244;10.534;2022-07-29T04:31:32;100907.34;;;17.25;49.97
6778;BME280;3426;52.244;10.534;2022-07-29T04:33:59;100905.03;;;18.10;48.20
6778;BME280;3426;52.244;10.534;2022-07-29T04:36:25;100903.34;;;17.19;50.27
6778;BME280;3426;52.244;10.534;2022-07-29T04:38:55;100903.25;;;18.20;47.64
6778;BME280;3426;52.244;10.534;2022-07-29T04:41:21;100906.25;;;17.50;49.47
6778;BME280;3426;52.244;10.534;2022-07-29T04:43:48;100912.34;;;17.41;49.81
6778;BME280;3426;52.244;10.534;2022-07-29T04:46:15;100915.59;;;18.23;47.92
6778;BME280;3426;52.244;10.534;2022-07-29T04:48:42;100909.63;;;18.51;46.85
6778;BME280;3426;52.244;10.534;2022-07-29T04:51:08;100913.09;;;17.99;48.84
6778;BME280;3426;52.244;10.534;2022-07-29T04:53:35;100917.44;;;18.11;48.13
6778;BME280;3426;52.244;10.534;2022-07-29T04:56:02;100914.81;;;17.78;49.59
6778;BME280;3426;52.244;10.534;2022-07-29T04:58:28;100919.50;;;17.40;50.46
6778;BME280;3426;52.244;10.534;2022-07-29T05:00:55;100915.28;;;17.49;50.39
6778;BME280;3426;52.244;10.534;2022-07-29T05:03:21;100909.16;;;17.47;50.72
6778;BME280;3426;52.244;10.534;2022-07-29T05:05:48;100911.41;;;18.73;47.68
6778;BME280;3426;52.244;10.534;2022-07-29T05:08:14;100916.25;;;17.70;49.59
6778;BME280;3426;52.244;10.534;2022-07-29T05:10:44;100917.69;;;17.52;50.48
6778;BME280;3426;52.244;10.534;2022-07-29T05:13:10;100906.97;;;17.63;50.52
6778;BME280;3426;52.244;10.534;2022-07-29T05:15:37;100901.53;;;18.95;47.38
6778;BME280;3426;52.244;10.534;2022-07-29T05:18:04;100893.88;;;18.26;48.41
6778;BME280;3426;52.244;10.534;2022-07-29T05:20:31;100894.44;;;17.86;49.48
6778;BME280;3426;52.244;10.534;2022-07-29T05:23:00;100895.44;;;17.85;49.65
6778;BME280;3426;52.244;10.534;2022-07-29T05:25:28;100895.28;;;17.98;49.84
6778;BME280;3426;52.244;10.534;2022-07-29T05:28:10;100900.41;;;18.01;50.04
6778;BME280;3426;52.244;10.534;2022-07-29T05:30:37;100890.78;;;18.74;48.27
6778;BME280;3426;52.244;10.534;2022-07-29T05:33:04;100903.22;;;17.55;51.02
6778;BME280;3426;52.244;10.534;2022-07-29T05:35:30;100907.47;;;17.68;51.23
6778;BME280;3426;52.244;10.534;2022-07-29T05:37:57;100894.91;;;18.46;48.97
6778;BME280;3426;52.244;10.534;2022-07-29T05:40:23;100895.94;;;18.34;49.42
6778;BME280;3426;52.244;10.534;2022-07-29T05:42:50;100898.97;;;18.72;48.62
6778;BME280;3426;52.244;10.534;2022-07-29T05:45:16;100901.13;;;18.99;48.13
6778;BME280;3426;52.244;10.534;2022-07-29T05:47:43;100897.25;;;18.60;48.44
6778;BME280;3426;52.244;10.534;2022-07-29T05:50:09;100903.59;;;18.38;49.45
6778;BME280;3426;52.244;10.534;2022-07-29T05:52:36;100912.47;;;19.03;48.23
6778;BME280;3426;52.244;10.534;2022-07-29T05:55:03;100910.78;;;19.94;46.17
6778;BME280;3426;52.244;10.534;2022-07-29T05:57:31;100906.84;;;19.98;46.28
6778;BME280;3426;52.244;10.534;2022-07-29T05:59:58;100910.84;;;19.63;46.58
6778;BME280;3426;52.244;10.534;2022-07-29T06:02:24;100908.56;;;20.18;45.62
6778;BME280;3426;52.244;10.534;2022-07-29T06:04:51;100900.94;;;20.23;45.47
6778;BME280;3426;52.244;10.534;2022-07-29T06:07:19;100907.84;;;20.06;46.33
6778;BME280;3426;52.244;10.534;2022-07-29T06:09:47;100925.44;;;20.30;45.75
6778;BME280;3426;52.244;10.534;2022-07-29T06:12:14;100922.91;;;19.27;47.41
6778;BME280;3426;52.244;10.534;2022-07-29T06:14:40;100919.75;;;20.23;45.98
6778;BME280;3426;52.244;10.534;2022-07-29T06:17:07;100905.25;;;19.85;45.95
6778;BME280;3426;52.244;10.534;2022-07-29T06:19:34;100912.91;;;20.00;46.13
6778;BME280;3426;52.244;10.534;2022-07-29T06:22:01;100901.19;;;18.67;49.36
6778;BME280;3426;52.244;10.534;2022-07-29T06:24:28;100900.09;;;18.91;48.59
6778;BME280;3426;52.244;10.534;2022-07-29T06:26:55;100895.75;;;19.51;47.44
6778;BME280;3426;52.244;10.534;2022-07-29T06:29:22;100889.34;;;20.32;45.67
6778;BME280;3426;52.244;10.534;2022-07-29T06:31:48;100889.94;;;20.75;45.12
6778;BME280;3426;52.244;10.534;2022-07-29T06:34:15;100898.09;;;19.35;48.05
6778;BME280;3426;52.244;10.534;2022-07-29T06:36:43;100900.72;;;19.55;47.84
6778;BME280;3426;52.244;10.534;2022-07-29T06:39:11;100900.16;;;19.52;48.14
6778;BME280;3426;52.244;10.534;2022-07-29T06:41:37;100895.81;;;20.01;46.83
6778;BME280;3426;52.244;10.534;2022-07-29T06:44:04;100894.44;;;19.66;47.52
6778;BME280;3426;52.244;10.534;2022-07-29T06:46:31;100884.22;;;20.29;46.28
6778;BME280;3426;52.244;10.534;2022-07-29T06:48:58;100889.97;;;19.55;47.90
6778;BME280;3426;52.244;10.534;2022-07-29T06:51:26;100889.53;;;19.81;47.42
6778;BME280;3426;52.244;10.534;2022-07-29T06:53:53;100897.72;;;19.18;48.92
6778;BME280;3426;52.244;10.534;2022-07-29T06:56:31;100889.91;;;20.36;46.20
6778;BME280;3426;52.244;10.534;2022-07-29T06:59:06;100895.13;;;20.28;46.61
6778;BME280;3426;52.244;10.534;2022-07-29T07:01:33;100905.41;;;19.32;48.50
6778;BME280;3426;52.244;10.534;2022-07-29T07:04:00;100898.94;;;20.16;47.12
6778;BME280;3426;52.244;10.534;2022-07-29T07:06:26;100900.56;;;20.57;45.95
6778;BME280;3426;52.244;10.534;2022-07-29T07:08:53;100909.16;;;19.72;47.70
6778;BME280;3426;52.244;10.534;2022-07-29T07:11:20;100911.59;;;21.59;44.37
6778;BME280;3426;52.244;10.534;2022-07-29T07:13:46;100895.59;;;22.30;42.88
6778;BME280;3426;52.244;10.534;2022-07-29T07:16:13;100902.00;;;22.47;41.17
6778;BME280;3426;52.244;10.534;2022-07-29T07:18:40;100903.00;;;22.64;40.93
6778;BME280;3426;52.244;10.534;2022-07-29T07:21:06;100899.56;;;21.43;43.98
6778;BME280;3426;52.244;10.534;2022-07-29T07:23:33;100893.22;;;23.07;40.91
6778;BME280;3426;52.244;10.534;2022-07-29T07:25:59;100883.06;;;23.00;40.10
6778;BME280;3426;52.244;10.534;2022-07-29T07:28:26;100878.31;;;22.77;41.39
6778;BME280;3426;52.244;10.534;2022-07-29T07:30:52;100878.59;;;21.47;43.77
6778;BME280;3426;52.244;10.534;2022-07-29T07:33:19;100867.63;;;22.31;42.18
6778;BME280;3426;52.244;10.534;2022-07-29T07:35:46;100872.25;;;21.93;43.25
6778;BME280;3426;52.244;10.534;2022-07-29T07:38:13;100870.31;;;22.49;41.52
6778;BME280;3426;52.244;10.534;2022-07-29T07:40:40;100860.44;;;22.58;41.47
6778;BME280;3426;52.244;10.534;2022-07-29T07:43:06;100857.44;;;22.43;42.04
6778;BME280;3426;52.244;10.534;2022-07-29T07:45:33;100860.72;;;23.50;39.97
6778;BME280;3426;52.244;10.534;2022-07-29T07:47:59;100867.47;;;23.46;39.77
6778;BME280;3426;52.244;10.534;2022-07-29T07:50:26;100863.69;;;22.43;41.56
6778;BME280;3426;52.244;10.534;2022-07-29T07:52:54;100862.63;;;24.09;38.88
6778;BME280;3426;52.244;10.534;2022-07-29T07:55:24;100860.44;;;22.22;42.23
6778;BME280;3426;52.244;10.534;2022-07-29T07:57:51;100863.16;;;22.84;41.78
6778;BME280;3426;52.244;10.534;2022-07-29T08:00:17;100856.88;;;23.95;39.34
6778;BME280;3426;52.244;10.534;2022-07-29T08:02:48;100846.31;;;23.76;40.14
6778;BME280;3426;52.244;10.534;2022-07-29T08:05:15;100845.94;;;23.63;40.01
6778;BME280;3426;52.244;10.534;2022-07-29T08:07:45;100851.56;;;23.43;40.66
6778;BME280;3426;52.244;10.534;2022-07-29T08:10:14;100851.66;;;22.38;42.75
6778;BME280;3426;52.244;10.534;2022-07-29T08:12:43;100849.03;;;22.28;43.19
6778;BME280;3426;52.244;10.534;2022-07-29T08:15:09;100854.38;;;22.99;41.90
6778;BME280;3426;52.244;10.534;2022-07-29T08:17:36;100848.88;;;23.43;41.20
6778;BME280;3426;52.244;10.534;2022-07-29T08:20:03;100844.22;;;23.62;40.03
6778;BME280;3426;52.244;10.534;2022-07-29T08:22:29;100859.47;;;22.41;42.67
6778;BME280;3426;52.244;10.534;2022-07-29T08:24:56;100853.53;;;24.18;39.71
6778;BME280;3426;52.244;10.534;2022-07-29T08:27:23;100857.00;;;23.86;40.22
6778;BME280;3426;52.244;10.534;2022-07-29T08:30:09;100858.66;;;24.62;38.65
6778;BME280;3426;52.244;10.534;2022-07-29T08:32:36;100857.31;;;24.41;38.47
6778;BME280;3426;52.244;10.534;2022-07-29T08:35:20;100866.56;;;22.68;41.93
6778;BME280;3426;52.244;10.534;2022-07-29T08:37:47;100862.53;;;23.68;40.26
6778;BME280;3426;52.244;10.534;2022-07-29T08:40:14;100864.94;;;23.19;40.95
6778;BME280;3426;52.244;10.534;2022-07-29T08:42:40;100855.47;;;23.83;39.73
6778;BME280;3426;52.244;10.534;2022-07-29T08:45:07;100861.00;;;24.73;37.68
6778;BME280;3426;52.244;10.534;2022-07-29T08:47:35;100853.22;;;24.78;37.62
6778;BME280;3426;52.244;10.534;2022-07-29T08:50:07;100859.47;;;25.03;37.21
6778;BME280;3426;52.244;10.534;2022-07-29T08:52:39;100858.53;;;25.90;35.86
6778;BME280;3426;52.244;10.534;2022-07-29T08:55:08;100853.78;;;25.53;35.67
6778;BME280;3426;52.244;10.534;2022-07-29T08:57:35;100854.75;;;26.00;35.46
6778;BME280;3426;52.244;10.534;2022-07-29T09:00:06;100863.78;;;23.90;38.42
6778;BME280;3426;52.244;10.534;2022-07-29T09:02:41;100858.13;;;24.82;36.51
6778;BME280;3426;52.244;10.534;2022-07-29T09:05:12;100843.84;;;26.31;34.61
6778;BME280;3426;52.244;10.534;2022-07-29T09:07:39;100849.66;;;26.28;34.76
6778;BME280;3426;52.244;10.534;2022-07-29T09:10:06;100859.66;;;24.61;38.20
6778;BME280;3426;52.244;10.534;2022-07-29T09:12:32;100849.66;;;24.94;37.64
6778;BME280;3426;52.244;10.534;2022-07-29T09:15:03;100847.59;;;25.68;35.93
6778;BME280;3426;52.244;10.534;2022-07-29T09:17:47;100844.16;;;26.13;35.02
6778;BME280;3426;52.244;10.534;2022-07-29T09:20:21;100839.53;;;26.45;35.52
6778;BME280;3426;52.244;10.534;2022-07-29T09:22:50;100839.81;;;25.64;36.09
6778;BME280;3426;52.244;10.534;2022-07-29T09:25:35;100845.75;;;25.13;37.78
6778;BME280;3426;52.244;10.534;2022-07-29T09:28:09;100847.44;;;25.22;37.35
6778;BME280;3426;52.244;10.534;2022-07-29T09:30:50;100845.34;;;26.10;36.28
6778;BME280;3426;52.244;10.534;2022-07-29T09:33:18;100841.94;;;26.16;36.07
6778;BME280;3426;52.244;10.534;2022-07-29T09:35:45;100847.88;;;26.12;36.32
6778;BME280;3426;52.244;10.534;2022-07-29T09:38:22;100843.19;;;26.06;36.20
6778;BME280;3426;52.244;10.534;2022-07-29T09:40:57;100838.78;;;26.05;36.06
6778;BME280;3426;52.244;10.534;2022-07-29T09:43:31;100837.44;;;25.61;37.05
6778;BME280;3426;52.244;10.534;2022-07-29T09:46:13;100827.31;;;25.08;37.19
6778;BME280;3426;52.244;10.534;2022-07-29T09:48:40;100831.88;;;24.83;37.76
6778;BME280;3426;52.244;10.534;2022-07-29T09:51:17;100830.19;;;24.90;37.86
6778;BME280;3426;52.244;10.534;2022-07-29T09:53:53;100830.66;;;25.26;37.75
6778;BME280;3426;52.244;10.534;2022-07-29T09:56:37;100825.78;;;25.92;36.50
6778;BME280;3426;52.244;10.534;2022-07-29T09:59:08;100826.50;;;24.42;38.25
6778;BME280;3426;52.244;10.534;2022-07-29T10:01:35;100825.38;;;26.26;35.50
6778;BME280;3426;52.244;10.534;2022-07-29T10:04:02;100815.56;;;27.01;34.49
6778;BME280;3426;52.244;10.534;2022-07-29T10:06:29;100816.34;;;27.39;34.15
6778;BME280;3426;52.244;10.534;2022-07-29T10:09:09;100817.47;;;26.39;35.47
6778;BME280;3426;52.244;10.534;2022-07-29T10:11:35;100815.13;;;27.41;34.20
6778;BME280;3426;52.244;10.534;2022-07-29T10:14:15;100805.34;;;27.03;34.90
6778;BME280;3426;52.244;10.534;2022-07-29T10:16:42;100809.09;;;26.26;35.93
6778;BME280;3426;52.244;10.534;2022-07-29T10:19:09;100803.38;;;26.97;34.90
6778;BME280;3426;52.244;10.534;2022-07-29T10:21:35;100794.88;;;27.29;34.35
6778;BME280;3426;52.244;10.534;2022-07-29T10:24:04;100796.19;;;25.82;36.51
6778;BME280;3426;52.244;10.534;2022-07-29T10:26:40;100803.91;;;26.77;35.50
6778;BME280;3426;52.244;10.534;2022-07-29T10:29:07;100796.88;;;26.83;35.34
6778;BME280;3426;52.244;10.534;2022-07-29T10:37:42;100798.69;;;27.50;33.79
6778;BME280;3426;52.244;10.534;2022-07-29T10:40:28;100796.94;;;26.37;35.38
6778;BME280;3426;52.244;10.534;2022-07-29T10:43:44;100794.22;;;27.27;33.93
6778;BME280;3426;52.244;10.534;2022-07-29T10:46:12;100797.25;;;26.65;35.05
6778;BME280;3426;52.244;10.534;2022-07-29T10:49:06;100779.78;;;28.14;33.06
6778;BME280;3426;52.244;10.534;2022-07-29T10:57:21;100778.56;;;26.24;35.17
6778;BME280;3426;52.244;10.534;2022-07-29T11:02:43;100777.09;;;27.99;32.83
6778;BME280;3426;52.244;10.534;2022-07-29T11:05:16;100776.06;;;28.21;32.75
6778;BME280;3426;52.244;10.534;2022-07-29T11:10:47;100785.41;;;27.10;34.11
6778;BME280;3426;52.244;10.534;2022-07-29T11:16:14;100771.38;;;27.94;30.37
6778;BME280;3426;52.244;10.534;2022-07-29T11:21:43;100786.53;;;27.16;33.49
6778;BME280;3426;52.244;10.534;2022-07-29T11:24:30;100785.44;;;26.58;34.15
6778;BME280;3426;52.244;10.534;2022-07-29T11:29:39;100771.41;;;26.84;32.71
6778;BME280;3426;52.244;10.534;2022-07-29T11:32:11;100772.03;;;27.96;31.16
6778;BME280;3426;52.244;10.534;2022-07-29T11:34:43;100765.03;;;28.51;29.08
6778;BME280;3426;52.244;10.534;2022-07-29T11:45:02;100771.25;;;28.45;31.25
6778;BME280;3426;52.244;10.534;2022-07-29T11:47:54;100757.66;;;29.08;30.40
6778;BME280;3426;52.244;10.534;2022-07-29T11:50:34;100762.50;;;28.49;30.80
6778;BME280;3426;52.244;10.534;2022-07-29T11:53:09;100774.13;;;26.84;32.76
6778;BME280;3426;52.244;10.534;2022-07-29T11:55:37;100752.47;;;27.86;31.62
6778;BME280;3426;52.244;10.534;2022-07-29T11:58:21;100753.75;;;28.89;29.82
6778;BME280;3426;52.244;10.534;2022-07-29T12:00:52;100758.50;;;28.80;29.65
6778;BME280;3426;52.244;10.534;2022-07-29T12:03:28;100758.78;;;28.92;28.45
6778;BME280;3426;52.244;10.534;2022-07-29T12:06:00;100753.19;;;28.65;26.54
6778;BME280;3426;52.244;10.534;2022-07-29T12:08:27;100753.03;;;28.73;26.13
6778;BME280;3426;52.244;10.534;2022-07-29T12:10:54;100746.38;;;28.83;26.04
6778;BME280;3426;52.244;10.534;2022-07-29T12:13:21;100750.72;;;28.21;26.54
6778;BME280;3426;52.244;10.534;2022-07-29T12:16:02;100748.88;;;28.77;26.15
6778;BME280;3426;52.244;10.534;2022-07-29T12:18:29;100748.03;;;28.49;25.91
6778;BME280;3426;52.244;10.534;2022-07-29T12:20:58;100745.66;;;28.39;26.58
6778;BME280;3426;52.244;10.534;2022-07-29T12:23:30;100751.38;;;29.07;25.43
6778;BME280;3426;52.244;10.534;2022-07-29T12:26:04;100745.88;;;29.00;25.36
6778;BME280;3426;52.244;10.534;2022-07-29T12:28:38;100745.81;;;28.59;25.55
6778;BME280;3426;52.244;10.534;2022-07-29T12:31:06;100731.75;;;29.31;25.02
6778;BME280;3426;52.244;10.534;2022-07-29T12:33:39;100740.78;;;28.35;26.52
6778;BME280;3426;52.244;10.534;2022-07-29T12:36:06;100740.19;;;28.67;25.72
6778;BME280;3426;52.244;10.534;2022-07-29T12:38:39;100749.31;;;28.53;25.40
6778;BME280;3426;52.244;10.534;2022-07-29T12:41:06;100753.25;;;29.07;25.08
6778;BME280;3426;52.244;10.534;2022-07-29T12:43:33;100746.13;;;29.06;25.25
6778;BME280;3426;52.244;10.534;2022-07-29T12:46:14;100745.59;;;28.61;25.80
6778;BME280;3426;52.244;10.534;2022-07-29T12:48:42;100745.34;;;29.18;25.49
6778;BME280;3426;52.244;10.534;2022-07-29T12:51:11;100745.31;;;29.12;25.14
6778;BME280;3426;52.244;10.534;2022-07-29T12:53:40;100750.09;;;28.47;25.85
6778;BME280;3426;52.244;10.534;2022-07-29T12:56:15;100745.88;;;29.00;25.38
6778;BME280;3426;52.244;10.534;2022-07-29T12:59:18;100745.84;;;28.66;25.64
6778;BME280;3426;52.244;10.534;2022-07-29T13:01:47;100742.00;;;28.88;25.62
6778;BME280;3426;52.244;10.534;2022-07-29T13:04:29;100740.50;;;28.86;25.91
6778;BME280;3426;52.244;10.534;2022-07-29T13:12:09;100736.66;;;28.73;25.82
6778;BME280;3426;52.244;10.534;2022-07-29T13:14:39;100737.13;;;29.12;25.28
6778;BME280;3426;52.244;10.534;2022-07-29T13:22:00;100739.38;;;29.01;25.29
6778;BME280;3426;52.244;10.534;2022-07-29T13:24:26;100739.56;;;28.93;26.12
6778;BME280;3426;52.244;10.534;2022-07-29T13:26:55;100741.44;;;28.37;26.50
6778;BME280;3426;52.244;10.534;2022-07-29T13:29:21;100735.03;;;28.79;25.56
6778;BME280;3426;52.244;10.534;2022-07-29T13:31:48;100734.06;;;29.28;25.11
6778;BME280;3426;52.244;10.534;2022-07-29T13:34:15;100724.69;;;29.02;25.50
6778;BME280;3426;52.244;10.534;2022-07-29T13:36:41;100733.91;;;28.95;25.70
6778;BME280;3426;52.244;10.534;2022-07-29T13:39:08;100725.16;;;29.13;25.02
6778;BME280;3426;52.244;10.534;2022-07-29T13:41:34;100721.22;;;28.87;25.75
6778;BME280;3426;52.244;10.534;2022-07-29T13:44:02;100723.72;;;29.10;25.08
6778;BME280;3426;52.244;10.534;2022-07-29T13:46:28;100714.88;;;29.63;24.88
6778;BME280;3426;52.244;10.534;2022-07-29T13:48:55;100721.72;;;30.13;24.94
6778;BME280;3426;52.244;10.534;2022-07-29T13:51:22;100718.34;;;29.37;24.79
6778;BME280;3426;52.244;10.534;2022-07-29T13:53:49;100715.72;;;29.15;24.82
6778;BME280;3426;52.244;10.534;2022-07-29T13:56:15;100718.28;;;29.98;24.41
6778;BME280;3426;52.244;10.534;2022-07-29T13:58:42;100711.44;;;29.47;24.59
6778;BME280;3426;52.244;10.534;2022-07-29T14:01:08;100703.13;;;29.62;25.04
6778;BME280;3426;52.244;10.534;2022-07-29T14:03:35;100706.19;;;29.39;24.97
6778;BME280;3426;52.244;10.534;2022-07-29T14:06:05;100706.09;;;29.19;25.21